sensor_id;sensor_type;location;lat;lon;timestamp;P1;durP1;ratioP1;P2;durP2;ratioP2
13605;SDS011;6874;52.084;5.090;2022-10-26T00:00:04;46.13;;;44.63;;
13605;SDS011;6874;52.084;5.090;2022-10-26T00:02:30;47.10;;;45.60;;
13605;SDS011;6874;52.084;5.090;2022-10-26T00:04:57;48.40;;;46.80;;
13605;SDS011;6874;52.084;5.090;2022-10-26T00:07:22;49.00;;;47.40;;
13605;SDS011;6874;52.084;5.090;2022-10-26T00:09:48;49.50;;;47.90;;
13605;SDS011;6874;52.084;5.090;2022-10-26T00:12:13;47.77;;;46.20;;
13605;SDS011;6874;52.084;5.090;2022-10-26T00:14:39;49.40;;;47.80;;
13605;SDS011;6874;52.084;5.090;2022-10-26T00:17:04;49.53;;;47.93;;
13605;SDS011;6874;52.084;5.090;2022-10-26T00:19:32;48.03;;;46.43;;
13605;SDS011;6874;52.084;5.090;2022-10-26T00:21:59;49.93;;;48.33;;
13605;SDS011;6874;52.084;5.090;2022-10-26T00:24:24;48.43;;;46.83;;
13605;SDS011;6874;52.084;5.090;2022-10-26T00:26:50;48.70;;;47.10;;
13605;SDS011;6874;52.084;5.090;2022-10-26T00:29:15;47.27;;;45.77;;
13605;SDS011;6874;52.084;5.090;2022-10-26T00:31:42;46.27;;;44.77;;
13605;SDS011;6874;52.084;5.090;2022-10-26T00:34:08;48.37;;;46.77;;
13605;SDS011;6874;52.084;5.090;2022-10-26T00:36:36;46.73;;;45.23;;
13605;SDS011;6874;52.084;5.090;2022-10-26T00:39:01;49.07;;;47.47;;
13605;SDS011;6874;52.084;5.090;2022-10-26T00:41:31;46.70;;;45.20;;
13605;SDS011;6874;52.084;5.090;2022-10-26T00:43:58;44.17;;;42.70;;
13605;SDS011;6874;52.084;5.090;2022-10-26T00:46:31;47.20;;;45.70;;
13605;SDS011;6874;52.084;5.090;2022-10-26T00:49:04;40.73;;;39.43;;
13605;SDS011;6874;52.084;5.090;2022-10-26T00:51:40;42.70;;;41.30;;
13605;SDS011;6874;52.084;5.090;2022-10-26T00:54:14;41.37;;;40.03;;
13605;SDS011;6874;52.084;5.090;2022-10-26T00:56:45;39.00;;;37.73;;
13605;SDS011;6874;52.084;5.090;2022-10-26T00:59:12;44.57;;;43.13;;
13605;SDS011;6874;52.084;5.090;2022-10-26T01:01:40;43.90;;;42.47;;
13605;SDS011;6874;52.084;5.090;2022-10-26T01:04:09;44.07;;;42.63;;
13605;SDS011;6874;52.084;5.090;2022-10-26T01:06:36;40.30;;;39.00;;
13605;SDS011;6874;52.084;5.090;2022-10-26T01:09:03;43.37;;;41.97;;
13605;SDS011;6874;52.084;5.090;2022-10-26T01:11:29;42.57;;;41.17;;
13605;SDS011;6874;52.084;5.090;2022-10-26T01:13:55;41.37;;;40.00;;
13605;SDS011;6874;52.084;5.090;2022-10-26T01:27:12;31.50;;;30.50;;
13605;SDS011;6874;52.084;5.090;2022-10-26T01:41:24;26.47;;;25.63;;
13605;SDS011;6874;52.084;5.090;2022-10-26T01:46:34;23.50;;;22.77;;
13605;SDS011;6874;52.084;5.090;2022-10-26T01:49:04;27.67;;;26.77;;
13605;SDS011;6874;52.084;5.090;2022-10-26T01:51:34;25.10;;;24.30;;
13605;SDS011;6874;52.084;5.090;2022-10-26T01:54:00;27.20;;;26.33;;
13605;SDS011;6874;52.084;5.090;2022-10-26T01:56:26;28.03;;;27.13;;
13605;SDS011;6874;52.084;5.090;2022-10-26T01:59:03;28.60;;;27.70;;
13605;SDS011;6874;52.084;5.090;2022-10-26T02:02:06;23.27;;;22.53;;
13605;SDS011;6874;52.084;5.090;2022-10-26T02:05:38;23.10;;;22.40;;
13605;SDS011;6874;52.084;5.090;2022-10-26T02:15:55;24.37;;;23.60;;
13605;SDS011;6874;52.084;5.090;2022-10-26T02:18:42;22.40;;;21.70;;
13605;SDS011;6874;52.084;5.090;2022-10-26T02:21:16;22.43;;;21.73;;
13605;SDS011;6874;52.084;5.090;2022-10-26T02:23:46;24.13;;;23.37;;
13605;SDS011;6874;52.084;5.090;2022-10-26T02:26:14;23.53;;;22.80;;
13605;SDS011;6874;52.084;5.090;2022-10-26T02:28:45;23.50;;;22.73;;
13605;SDS011;6874;52.084;5.090;2022-10-26T02:31:15;25.30;;;24.50;;
13605;SDS011;6874;52.084;5.090;2022-10-26T02:33:44;23.30;;;22.57;;
13605;SDS011;6874;52.084;5.090;2022-10-26T02:36:14;26.20;;;25.37;;
13605;SDS011;6874;52.084;5.090;2022-10-26T02:38:43;23.90;;;23.17;;
13605;SDS011;6874;52.084;5.090;2022-10-26T02:41:11;24.70;;;23.93;;
13605;SDS011;6874;52.084;5.090;2022-10-26T02:43:47;25.60;;;24.80;;
13605;SDS011;6874;52.084;5.090;2022-10-26T02:46:19;23.40;;;22.67;;
13605;SDS011;6874;52.084;5.090;2022-10-26T02:48:47;25.13;;;24.33;;
13605;SDS011;6874;52.084;5.090;2022-10-26T02:51:16;24.13;;;23.37;;
13605;SDS011;6874;52.084;5.090;2022-10-26T02:53:50;22.63;;;21.93;;
13605;SDS011;6874;52.084;5.090;2022-10-26T02:56:30;24.83;;;24.03;;
13605;SDS011;6874;52.084;5.090;2022-10-26T02:59:04;22.50;;;21.80;;
13605;SDS011;6874;52.084;5.090;2022-10-26T03:01:32;27.00;;;26.13;;
13605;SDS011;6874;52.084;5.090;2022-10-26T03:03:58;25.70;;;24.90;;
13605;SDS011;6874;52.084;5.090;2022-10-26T03:06:24;24.93;;;24.13;;
13605;SDS011;6874;52.084;5.090;2022-10-26T03:08:49;25.30;;;24.50;;
13605;SDS011;6874;52.084;5.090;2022-10-26T03:11:16;25.50;;;24.67;;
13605;SDS011;6874;52.084;5.090;2022-10-26T03:13:42;24.90;;;24.13;;
13605;SDS011;6874;52.084;5.090;2022-10-26T03:16:08;24.83;;;24.07;;
13605;SDS011;6874;52.084;5.090;2022-10-26T03:18:34;26.30;;;25.47;;
13605;SDS011;6874;52.084;5.090;2022-10-26T03:20:59;24.80;;;24.03;;
13605;SDS011;6874;52.084;5.090;2022-10-26T03:23:25;22.97;;;22.23;;
13605;SDS011;6874;52.084;5.090;2022-10-26T03:25:50;25.90;;;25.07;;
13605;SDS011;6874;52.084;5.090;2022-10-26T03:28:16;26.90;;;26.03;;
13605;SDS011;6874;52.084;5.090;2022-10-26T03:30:41;26.83;;;26.00;;
13605;SDS011;6874;52.084;5.090;2022-10-26T03:33:07;25.57;;;24.73;;
13605;SDS011;6874;52.084;5.090;2022-10-26T03:35:32;23.33;;;22.60;;
13605;SDS011;6874;52.084;5.090;2022-10-26T03:37:58;25.97;;;25.13;;
13605;SDS011;6874;52.084;5.090;2022-10-26T03:40:23;24.60;;;23.83;;
13605;SDS011;6874;52.084;5.090;2022-10-26T03:42:49;26.50;;;25.67;;
13605;SDS011;6874;52.084;5.090;2022-10-26T03:45:14;26.47;;;25.63;;
13605;SDS011;6874;52.084;5.090;2022-10-26T03:47:47;24.03;;;23.27;;
13605;SDS011;6874;52.084;5.090;2022-10-26T03:50:14;26.00;;;25.20;;
13605;SDS011;6874;52.084;5.090;2022-10-26T03:52:41;25.10;;;24.30;;
13605;SDS011;6874;52.084;5.090;2022-10-26T03:55:07;26.17;;;25.37;;
13605;SDS011;6874;52.084;5.090;2022-10-26T03:57:33;25.97;;;25.17;;
13605;SDS011;6874;52.084;5.090;2022-10-26T04:00:03;24.13;;;23.37;;
13605;SDS011;6874;52.084;5.090;2022-10-26T04:02:29;25.00;;;24.23;;
13605;SDS011;6874;52.084;5.090;2022-10-26T04:04:55;24.83;;;24.03;;
13605;SDS011;6874;52.084;5.090;2022-10-26T04:07:20;24.73;;;23.93;;
13605;SDS011;6874;52.084;5.090;2022-10-26T04:09:46;24.17;;;23.40;;
13605;SDS011;6874;52.084;5.090;2022-10-26T04:12:11;24.97;;;24.17;;
13605;SDS011;6874;52.084;5.090;2022-10-26T04:14:37;27.73;;;26.83;;
13605;SDS011;6874;52.084;5.090;2022-10-26T04:17:02;28.40;;;27.50;;
13605;SDS011;6874;52.084;5.090;2022-10-26T04:19:28;25.00;;;24.20;;
13605;SDS011;6874;52.084;5.090;2022-10-26T04:21:53;27.77;;;26.87;;
13605;SDS011;6874;52.084;5.090;2022-10-26T04:24:19;25.07;;;24.27;;
13605;SDS011;6874;52.084;5.090;2022-10-26T04:26:44;28.67;;;27.77;;
13605;SDS011;6874;52.084;5.090;2022-10-26T04:29:10;30.33;;;29.33;;
13605;SDS011;6874;52.084;5.090;2022-10-26T04:31:37;26.60;;;25.80;;
13605;SDS011;6874;52.084;5.090;2022-10-26T04:34:03;28.47;;;27.57;;
13605;SDS011;6874;52.084;5.090;2022-10-26T04:36:28;27.97;;;27.07;;
13605;SDS011;6874;52.084;5.090;2022-10-26T04:38:54;27.63;;;26.73;;
13605;SDS011;6874;52.084;5.090;2022-10-26T04:41:20;27.57;;;26.67;;
13605;SDS011;6874;52.084;5.090;2022-10-26T04:43:45;27.40;;;26.50;;
13605;SDS011;6874;52.084;5.090;2022-10-26T04:46:11;27.23;;;26.37;;
13605;SDS011;6874;52.084;5.090;2022-10-26T04:48:38;29.57;;;28.67;;
13605;SDS011;6874;52.084;5.090;2022-10-26T04:51:03;28.80;;;27.90;;
13605;SDS011;6874;52.084;5.090;2022-10-26T04:53:29;30.20;;;29.20;;
13605;SDS011;6874;52.084;5.090;2022-10-26T04:55:55;25.77;;;24.97;;
13605;SDS011;6874;52.084;5.090;2022-10-26T04:58:22;29.27;;;28.37;;
13605;SDS011;6874;52.084;5.090;2022-10-26T05:00:47;28.53;;;27.63;;
13605;SDS011;6874;52.084;5.090;2022-10-26T05:03:13;26.43;;;25.63;;
13605;SDS011;6874;52.084;5.090;2022-10-26T05:05:38;26.10;;;25.30;;
13605;SDS011;6874;52.084;5.090;2022-10-26T05:08:04;29.17;;;28.27;;
13605;SDS011;6874;52.084;5.090;2022-10-26T05:10:30;29.27;;;28.37;;
13605;SDS011;6874;52.084;5.090;2022-10-26T05:12:56;27.87;;;26.97;;
13605;SDS011;6874;52.084;5.090;2022-10-26T05:15:24;24.63;;;23.83;;
13605;SDS011;6874;52.084;5.090;2022-10-26T05:17:56;25.50;;;24.70;;
13605;SDS011;6874;52.084;5.090;2022-10-26T05:20:29;24.50;;;23.73;;
13605;SDS011;6874;52.084;5.090;2022-10-26T05:22:57;25.90;;;25.07;;
13605;SDS011;6874;52.084;5.090;2022-10-26T05:25:24;26.00;;;25.20;;
13605;SDS011;6874;52.084;5.090;2022-10-26T05:27:51;25.37;;;24.57;;
13605;SDS011;6874;52.084;5.090;2022-10-26T05:30:21;24.93;;;24.13;;
13605;SDS011;6874;52.084;5.090;2022-10-26T05:32:52;26.63;;;25.80;;
13605;SDS011;6874;52.084;5.090;2022-10-26T05:35:18;26.33;;;25.53;;
13605;SDS011;6874;52.084;5.090;2022-10-26T05:37:44;25.47;;;24.67;;
13605;SDS011;6874;52.084;5.090;2022-10-26T05:40:09;24.07;;;23.33;;
13605;SDS011;6874;52.084;5.090;2022-10-26T05:42:35;26.33;;;25.47;;
13605;SDS011;6874;52.084;5.090;2022-10-26T05:45:01;29.20;;;28.30;;
13605;SDS011;6874;52.084;5.090;2022-10-26T05:47:27;27.87;;;26.97;;
13605;SDS011;6874;52.084;5.090;2022-10-26T05:49:52;26.30;;;25.50;;
13605;SDS011;6874;52.084;5.090;2022-10-26T05:52:18;28.07;;;27.17;;
13605;SDS011;6874;52.084;5.090;2022-10-26T05:54:43;28.27;;;27.37;;
13605;SDS011;6874;52.084;5.090;2022-10-26T05:57:10;26.53;;;25.73;;
13605;SDS011;6874;52.084;5.090;2022-10-26T05:59:36;30.37;;;29.37;;
13605;SDS011;6874;52.084;5.090;2022-10-26T06:07:02;33.60;;;32.50;;
13605;SDS011;6874;52.084;5.090;2022-10-26T06:09:38;38.13;;;36.90;;
13605;SDS011;6874;52.084;5.090;2022-10-26T06:12:05;37.23;;;36.03;;
13605;SDS011;6874;52.084;5.090;2022-10-26T06:14:32;42.33;;;40.97;;
13605;SDS011;6874;52.084;5.090;2022-10-26T06:20:03;52.77;;;51.03;;
13605;SDS011;6874;52.084;5.090;2022-10-26T06:22:52;61.90;;;59.87;;
13605;SDS011;6874;52.084;5.090;2022-10-26T06:26:09;80.50;;;77.80;;
13605;SDS011;6874;52.084;5.090;2022-10-26T06:29:01;80.50;;;77.83;;
13605;SDS011;6874;52.084;5.090;2022-10-26T06:31:37;82.97;;;80.20;;
13605;SDS011;6874;52.084;5.090;2022-10-26T06:34:02;83.80;;;81.03;;
13605;SDS011;6874;52.084;5.090;2022-10-26T06:36:28;76.23;;;73.70;;
13605;SDS011;6874;52.084;5.090;2022-10-26T06:38:58;72.40;;;70.03;;
13605;SDS011;6874;52.084;5.090;2022-10-26T06:41:33;80.30;;;77.63;;
13605;SDS011;6874;52.084;5.090;2022-10-26T06:43:59;76.10;;;73.57;;
13605;SDS011;6874;52.084;5.090;2022-10-26T06:52:10;87.70;;;84.80;;
13605;SDS011;6874;52.084;5.090;2022-10-26T06:54:50;85.80;;;82.97;;
13605;SDS011;6874;52.084;5.090;2022-10-26T06:57:19;90.37;;;87.37;;
13605;SDS011;6874;52.084;5.090;2022-10-26T06:59:56;91.70;;;88.63;;
13605;SDS011;6874;52.084;5.090;2022-10-26T07:02:26;101.07;;;97.70;;
13605;SDS011;6874;52.084;5.090;2022-10-26T07:04:52;91.37;;;88.33;;
13605;SDS011;6874;52.084;5.090;2022-10-26T07:07:18;95.17;;;91.97;;
13605;SDS011;6874;52.084;5.090;2022-10-26T07:09:45;102.43;;;99.03;;
13605;SDS011;6874;52.084;5.090;2022-10-26T07:12:11;96.23;;;93.03;;
13605;SDS011;6874;52.084;5.090;2022-10-26T07:14:37;100.93;;;97.57;;
13605;SDS011;6874;52.084;5.090;2022-10-26T07:17:02;102.13;;;98.73;;
13605;SDS011;6874;52.084;5.090;2022-10-26T07:19:28;96.87;;;93.67;;
13605;SDS011;6874;52.084;5.090;2022-10-26T07:21:54;97.63;;;94.40;;
13605;SDS011;6874;52.084;5.090;2022-10-26T07:24:20;95.00;;;91.80;;
13605;SDS011;6874;52.084;5.090;2022-10-26T07:26:47;109.63;;;106.00;;
13605;SDS011;6874;52.084;5.090;2022-10-26T07:29:12;99.47;;;96.17;;
13605;SDS011;6874;52.084;5.090;2022-10-26T07:31:38;99.30;;;96.00;;
13605;SDS011;6874;52.084;5.090;2022-10-26T07:34:03;107.50;;;103.90;;
13605;SDS011;6874;52.084;5.090;2022-10-26T07:36:29;95.17;;;91.97;;
13605;SDS011;6874;52.084;5.090;2022-10-26T07:38:54;93.77;;;90.67;;
13605;SDS011;6874;52.084;5.090;2022-10-26T07:41:20;95.63;;;92.47;;
13605;SDS011;6874;52.084;5.090;2022-10-26T07:43:46;97.70;;;94.43;;
13605;SDS011;6874;52.084;5.090;2022-10-26T07:46:13;95.97;;;92.77;;
13605;SDS011;6874;52.084;5.090;2022-10-26T07:48:39;91.00;;;87.97;;
13605;SDS011;6874;52.084;5.090;2022-10-26T07:51:05;94.90;;;91.73;;
13605;SDS011;6874;52.084;5.090;2022-10-26T07:56:42;102.57;;;99.10;;
13605;SDS011;6874;52.084;5.090;2022-10-26T07:59:10;110.87;;;107.17;;
13605;SDS011;6874;52.084;5.090;2022-10-26T08:01:36;112.07;;;108.30;;
13605;SDS011;6874;52.084;5.090;2022-10-26T08:04:02;116.53;;;112.60;;
13605;SDS011;6874;52.084;5.090;2022-10-26T08:06:27;120.67;;;116.60;;
13605;SDS011;6874;52.084;5.090;2022-10-26T08:08:53;119.63;;;115.63;;
13605;SDS011;6874;52.084;5.090;2022-10-26T08:11:19;129.60;;;125.27;;
13605;SDS011;6874;52.084;5.090;2022-10-26T08:13:45;127.67;;;123.30;;
13605;SDS011;6874;52.084;5.090;2022-10-26T08:16:10;131.73;;;127.27;;
13605;SDS011;6874;52.084;5.090;2022-10-26T08:18:36;135.07;;;130.50;;
13605;SDS011;6874;52.084;5.090;2022-10-26T08:21:03;134.33;;;129.80;;
13605;SDS011;6874;52.084;5.090;2022-10-26T08:23:30;132.40;;;127.97;;
13605;SDS011;6874;52.084;5.090;2022-10-26T08:25:57;133.53;;;129.00;;
13605;SDS011;6874;52.084;5.090;2022-10-26T08:28:26;137.90;;;133.20;;
13605;SDS011;6874;52.084;5.090;2022-10-26T08:30:52;137.90;;;133.20;;
13605;SDS011;6874;52.084;5.090;2022-10-26T08:33:18;146.80;;;141.87;;
13605;SDS011;6874;52.084;5.090;2022-10-26T08:35:43;136.90;;;132.27;;
13605;SDS011;6874;52.084;5.090;2022-10-26T08:38:09;131.43;;;127.00;;
13605;SDS011;6874;52.084;5.090;2022-10-26T08:40:39;118.03;;;114.07;;
13605;SDS011;6874;52.084;5.090;2022-10-26T08:45:51;82.23;;;79.50;;
13605;SDS011;6874;52.084;5.090;2022-10-26T08:48:26;65.43;;;63.27;;
13605;SDS011;6874;52.084;5.090;2022-10-26T08:50:58;68.20;;;65.97;;
13605;SDS011;6874;52.084;5.090;2022-10-26T08:53:37;59.47;;;57.53;;
13605;SDS011;6874;52.084;5.090;2022-10-26T08:56:16;48.83;;;47.27;;
13605;SDS011;6874;52.084;5.090;2022-10-26T08:58:50;47.63;;;46.10;;
13605;SDS011;6874;52.084;5.090;2022-10-26T09:01:22;45.77;;;44.30;;
13605;SDS011;6874;52.084;5.090;2022-10-26T09:03:48;49.60;;;47.97;;
13605;SDS011;6874;52.084;5.090;2022-10-26T09:08:54;47.63;;;46.10;;
13605;SDS011;6874;52.084;5.090;2022-10-26T09:17:12;28.40;;;27.50;;
13605;SDS011;6874;52.084;5.090;2022-10-26T09:20:02;30.33;;;29.33;;
13605;SDS011;6874;52.084;5.090;2022-10-26T09:25:20;23.73;;;23.00;;
13605;SDS011;6874;52.084;5.090;2022-10-26T09:27:49;24.27;;;23.50;;
13605;SDS011;6874;52.084;5.090;2022-10-26T09:30:19;25.70;;;24.90;;
13605;SDS011;6874;52.084;5.090;2022-10-26T09:32:47;25.47;;;24.63;;
13605;SDS011;6874;52.084;5.090;2022-10-26T09:35:28;27.87;;;26.97;;
13605;SDS011;6874;52.084;5.090;2022-10-26T09:38:22;29.50;;;28.60;;
13605;SDS011;6874;52.084;5.090;2022-10-26T09:40:54;28.83;;;27.93;;
13605;SDS011;6874;52.084;5.090;2022-10-26T09:46:48;31.60;;;30.60;;
13605;SDS011;6874;52.084;5.090;2022-10-26T09:49:27;31.60;;;30.60;;
13605;SDS011;6874;52.084;5.090;2022-10-26T09:52:06;33.33;;;32.23;;
13605;SDS011;6874;52.084;5.090;2022-10-26T09:54:31;35.77;;;34.63;;
13605;SDS011;6874;52.084;5.090;2022-10-26T09:56:57;39.17;;;37.90;;
13605;SDS011;6874;52.084;5.090;2022-10-26T09:59:26;38.17;;;36.93;;
13605;SDS011;6874;52.084;5.090;2022-10-26T10:01:54;39.30;;;38.00;;
13605;SDS011;6874;52.084;5.090;2022-10-26T10:04:20;38.23;;;37.03;;
13605;SDS011;6874;52.084;5.090;2022-10-26T10:07:32;37.33;;;36.13;;
13605;SDS011;6874;52.084;5.090;2022-10-26T10:09:32;34.80;;;33.70;;
13605;SDS011;6874;52.084;5.090;2022-10-26T10:12:00;39.87;;;38.57;;
13605;SDS011;6874;52.084;5.090;2022-10-26T10:14:28;37.73;;;36.50;;
13605;SDS011;6874;52.084;5.090;2022-10-26T10:16:57;37.77;;;36.57;;
13605;SDS011;6874;52.084;5.090;2022-10-26T10:19:28;40.23;;;38.93;;
13605;SDS011;6874;52.084;5.090;2022-10-26T10:21:55;39.47;;;38.20;;
13605;SDS011;6874;52.084;5.090;2022-10-26T10:24:24;40.47;;;39.17;;
13605;SDS011;6874;52.084;5.090;2022-10-26T10:29:42;40.37;;;39.07;;
13605;SDS011;6874;52.084;5.090;2022-10-26T10:32:13;44.83;;;43.40;;
13605;SDS011;6874;52.084;5.090;2022-10-26T10:34:40;46.37;;;44.87;;
13605;SDS011;6874;52.084;5.090;2022-10-26T10:37:06;46.20;;;44.70;;
13605;SDS011;6874;52.084;5.090;2022-10-26T10:39:47;45.50;;;44.00;;
13605;SDS011;6874;52.084;5.090;2022-10-26T10:42:20;50.77;;;49.07;;
13605;SDS011;6874;52.084;5.090;2022-10-26T10:44:52;52.50;;;50.77;;
13605;SDS011;6874;52.084;5.090;2022-10-26T10:48:20;49.10;;;47.50;;
13605;SDS011;6874;52.084;5.090;2022-10-26T10:50:37;46.43;;;44.90;;
13605;SDS011;6874;52.084;5.090;2022-10-26T10:53:15;46.20;;;44.67;;
13605;SDS011;6874;52.084;5.090;2022-10-26T10:55:50;47.77;;;46.17;;
13605;SDS011;6874;52.084;5.090;2022-10-26T10:58:32;47.93;;;46.37;;
13605;SDS011;6874;52.084;5.090;2022-10-26T11:01:20;46.63;;;45.10;;
13605;SDS011;6874;52.084;5.090;2022-10-26T11:03:58;54.23;;;52.43;;
13605;SDS011;6874;52.084;5.090;2022-10-26T11:06:44;44.97;;;43.50;;
13605;SDS011;6874;52.084;5.090;2022-10-26T11:09:13;51.60;;;49.87;;
13605;SDS011;6874;52.084;5.090;2022-10-26T11:11:44;54.90;;;53.10;;
13605;SDS011;6874;52.084;5.090;2022-10-26T11:14:17;60.17;;;58.20;;
13605;SDS011;6874;52.084;5.090;2022-10-26T11:16:55;57.03;;;55.13;;
13605;SDS011;6874;52.084;5.090;2022-10-26T11:19:42;62.93;;;60.87;;
13605;SDS011;6874;52.084;5.090;2022-10-26T11:22:23;57.77;;;55.83;;
13605;SDS011;6874;52.084;5.090;2022-10-26T11:27:50;65.37;;;63.20;;
13605;SDS011;6874;52.084;5.090;2022-10-26T11:30:20;68.80;;;66.50;;
13605;SDS011;6874;52.084;5.090;2022-10-26T11:38:13;73.93;;;71.47;;
13605;SDS011;6874;52.084;5.090;2022-10-26T11:43:53;73.00;;;70.57;;
13605;SDS011;6874;52.084;5.090;2022-10-26T11:48:55;84.57;;;81.73;;
13605;SDS011;6874;52.084;5.090;2022-10-26T11:51:36;83.07;;;80.33;;
13605;SDS011;6874;52.084;5.090;2022-10-26T11:54:09;83.33;;;80.60;;
13605;SDS011;6874;52.084;5.090;2022-10-26T11:56:52;73.83;;;71.43;;
13605;SDS011;6874;52.084;5.090;2022-10-26T11:59:24;78.07;;;75.47;;
13605;SDS011;6874;52.084;5.090;2022-10-26T12:01:56;74.13;;;71.73;;
13605;SDS011;6874;52.084;5.090;2022-10-26T12:04:28;72.50;;;70.10;;
13605;SDS011;6874;52.084;5.090;2022-10-26T12:06:57;78.60;;;76.03;;
13605;SDS011;6874;52.084;5.090;2022-10-26T12:09:26;75.27;;;72.83;;
13605;SDS011;6874;52.084;5.090;2022-10-26T12:12:03;73.00;;;70.63;;
13605;SDS011;6874;52.084;5.090;2022-10-26T12:14:48;66.10;;;63.93;;
13605;SDS011;6874;52.084;5.090;2022-10-26T12:17:32;61.70;;;59.67;;
13605;SDS011;6874;52.084;5.090;2022-10-26T12:22:43;64.00;;;61.90;;
13605;SDS011;6874;52.084;5.090;2022-10-26T12:32:49;80.40;;;77.80;;
13605;SDS011;6874;52.084;5.090;2022-10-26T12:35:31;89.80;;;86.87;;
13605;SDS011;6874;52.084;5.090;2022-10-26T12:38:00;85.07;;;82.23;;
13605;SDS011;6874;52.084;5.090;2022-10-26T12:40:47;92.87;;;89.77;;
13605;SDS011;6874;52.084;5.090;2022-10-26T12:45:42;121.63;;;117.57;;
13605;SDS011;6874;52.084;5.090;2022-10-26T12:52:07;112.50;;;108.77;;
13605;SDS011;6874;52.084;5.090;2022-10-26T12:57:29;106.27;;;102.80;;
13605;SDS011;6874;52.084;5.090;2022-10-26T13:00:16;102.97;;;99.60;;
13605;SDS011;6874;52.084;5.090;2022-10-26T13:06:02;105.47;;;101.97;;
13605;SDS011;6874;52.084;5.090;2022-10-26T13:08:41;108.90;;;105.30;;
13605;SDS011;6874;52.084;5.090;2022-10-26T13:11:17;120.97;;;117.07;;
13605;SDS011;6874;52.084;5.090;2022-10-26T13:13:56;122.67;;;118.63;;
13605;SDS011;6874;52.084;5.090;2022-10-26T13:16:26;124.77;;;120.70;;
13605;SDS011;6874;52.084;5.090;2022-10-26T13:18:53;129.13;;;124.87;;
13605;SDS011;6874;52.084;5.090;2022-10-26T13:21:20;135.63;;;131.17;;
13605;SDS011;6874;52.084;5.090;2022-10-26T13:23:54;140.33;;;135.73;;
13605;SDS011;6874;52.084;5.090;2022-10-26T13:26:23;129.23;;;125.00;;
13605;SDS011;6874;52.084;5.090;2022-10-26T13:28:51;140.53;;;135.90;;
13605;SDS011;6874;52.084;5.090;2022-10-26T13:33:55;148.83;;;143.90;;
13605;SDS011;6874;52.084;5.090;2022-10-26T13:36:32;153.87;;;148.77;;
13605;SDS011;6874;52.084;5.090;2022-10-26T13:39:08;144.97;;;140.13;;
13605;SDS011;6874;52.084;5.090;2022-10-26T13:41:39;154.13;;;148.97;;
13605;SDS011;6874;52.084;5.090;2022-10-26T13:44:19;155.27;;;150.03;;
13605;SDS011;6874;52.084;5.090;2022-10-26T13:46:54;159.23;;;153.90;;
13605;SDS011;6874;52.084;5.090;2022-10-26T13:49:25;159.00;;;153.63;;
13605;SDS011;6874;52.084;5.090;2022-10-26T13:51:54;171.37;;;165.50;;
13605;SDS011;6874;52.084;5.090;2022-10-26T13:55:12;175.83;;;169.77;;
13605;SDS011;6874;52.084;5.090;2022-10-26T13:57:21;163.17;;;157.57;;
13605;SDS011;6874;52.084;5.090;2022-10-26T13:59:53;172.23;;;166.27;;
13605;SDS011;6874;52.084;5.090;2022-10-26T14:02:22;193.70;;;186.90;;
13605;SDS011;6874;52.084;5.090;2022-10-26T14:04:53;191.63;;;184.90;;
13605;SDS011;6874;52.084;5.090;2022-10-26T14:07:25;183.23;;;176.80;;
13605;SDS011;6874;52.084;5.090;2022-10-26T14:09:58;183.33;;;176.83;;
13605;SDS011;6874;52.084;5.090;2022-10-26T14:12:24;198.77;;;191.73;;
13605;SDS011;6874;52.084;5.090;2022-10-26T14:14:53;194.67;;;187.80;;
13605;SDS011;6874;52.084;5.090;2022-10-26T14:17:30;182.17;;;175.77;;
13605;SDS011;6874;52.084;5.090;2022-10-26T14:19:57;186.07;;;179.53;;
13605;SDS011;6874;52.084;5.090;2022-10-26T14:22:23;180.27;;;173.90;;
13605;SDS011;6874;52.084;5.090;2022-10-26T14:24:55;183.03;;;176.67;;
13605;SDS011;6874;52.084;5.090;2022-10-26T14:27:23;187.43;;;180.80;;
13605;SDS011;6874;52.084;5.090;2022-10-26T14:29:56;177.43;;;171.23;;
13605;SDS011;6874;52.084;5.090;2022-10-26T14:32:26;188.37;;;181.67;;
13605;SDS011;6874;52.084;5.090;2022-10-26T14:34:53;196.33;;;189.37;;
13605;SDS011;6874;52.084;5.090;2022-10-26T14:37:22;193.27;;;186.33;;
13605;SDS011;6874;52.084;5.090;2022-10-26T14:40:12;182.83;;;176.33;;
13605;SDS011;6874;52.084;5.090;2022-10-26T14:42:41;186.60;;;179.90;;
13605;SDS011;6874;52.084;5.090;2022-10-26T14:47:49;194.50;;;187.47;;
13605;SDS011;6874;52.084;5.090;2022-10-26T14:50:17;205.17;;;197.53;;
13605;SDS011;6874;52.084;5.090;2022-10-26T14:52:48;201.67;;;194.33;;
13605;SDS011;6874;52.084;5.090;2022-10-26T14:55:16;202.50;;;195.07;;
13605;SDS011;6874;52.084;5.090;2022-10-26T14:57:43;210.57;;;202.70;;
13605;SDS011;6874;52.084;5.090;2022-10-26T15:00:14;211.20;;;203.20;;
13605;SDS011;6874;52.084;5.090;2022-10-26T15:02:45;208.13;;;200.30;;
13605;SDS011;6874;52.084;5.090;2022-10-26T15:07:49;217.30;;;208.97;;
13605;SDS011;6874;52.084;5.090;2022-10-26T15:15:54;214.50;;;206.33;;
13605;SDS011;6874;52.084;5.090;2022-10-26T15:20:47;254.57;;;244.30;;
13605;SDS011;6874;52.084;5.090;2022-10-26T15:23:15;262.10;;;251.60;;
13605;SDS011;6874;52.084;5.090;2022-10-26T15:25:48;268.00;;;257.23;;
13605;SDS011;6874;52.084;5.090;2022-10-26T15:28:23;267.60;;;257.10;;
13605;SDS011;6874;52.084;5.090;2022-10-26T15:30:58;257.47;;;247.30;;
13605;SDS011;6874;52.084;5.090;2022-10-26T15:33:25;262.00;;;251.60;;
13605;SDS011;6874;52.084;5.090;2022-10-26T15:36:03;276.33;;;265.57;;
13605;SDS011;6874;52.084;5.090;2022-10-26T15:38:41;252.67;;;242.83;;
13605;SDS011;6874;52.084;5.090;2022-10-26T15:41:13;264.00;;;253.73;;
13605;SDS011;6874;52.084;5.090;2022-10-26T15:43:48;256.67;;;246.90;;
13605;SDS011;6874;52.084;5.090;2022-10-26T15:46:14;258.00;;;248.03;;
13605;SDS011;6874;52.084;5.090;2022-10-26T15:48:40;267.90;;;257.47;;
13605;SDS011;6874;52.084;5.090;2022-10-26T15:51:09;274.23;;;263.50;;
13605;SDS011;6874;52.084;5.090;2022-10-26T15:53:36;270.43;;;259.97;;
13605;SDS011;6874;52.084;5.090;2022-10-26T15:56:14;261.87;;;251.77;;
13605;SDS011;6874;52.084;5.090;2022-10-26T15:58:44;268.13;;;257.83;;
13605;SDS011;6874;52.084;5.090;2022-10-26T16:01:14;269.40;;;259.00;;
13605;SDS011;6874;52.084;5.090;2022-10-26T16:03:41;276.07;;;265.43;;
13605;SDS011;6874;52.084;5.090;2022-10-26T16:06:08;272.70;;;262.20;;
13605;SDS011;6874;52.084;5.090;2022-10-26T16:08:40;263.03;;;253.00;;
13605;SDS011;6874;52.084;5.090;2022-10-26T16:11:08;271.10;;;260.60;;
13605;SDS011;6874;52.084;5.090;2022-10-26T16:13:34;277.90;;;267.40;;
13605;SDS011;6874;52.084;5.090;2022-10-26T16:15:59;268.37;;;257.97;;
13605;SDS011;6874;52.084;5.090;2022-10-26T16:18:25;271.07;;;260.57;;
13605;SDS011;6874;52.084;5.090;2022-10-26T16:20:51;271.13;;;260.73;;
13605;SDS011;6874;52.084;5.090;2022-10-26T16:23:16;269.00;;;258.77;;
13605;SDS011;6874;52.084;5.090;2022-10-26T16:25:44;274.47;;;263.97;;
13605;SDS011;6874;52.084;5.090;2022-10-26T16:28:11;282.50;;;271.80;;
13605;SDS011;6874;52.084;5.090;2022-10-26T16:30:38;284.50;;;273.67;;
13605;SDS011;6874;52.084;5.090;2022-10-26T16:33:04;291.00;;;279.73;;
13605;SDS011;6874;52.084;5.090;2022-10-26T16:35:29;285.33;;;274.30;;
13605;SDS011;6874;52.084;5.090;2022-10-26T16:37:55;291.47;;;280.20;;
13605;SDS011;6874;52.084;5.090;2022-10-26T16:40:20;311.07;;;299.03;;
13605;SDS011;6874;52.084;5.090;2022-10-26T16:42:46;306.97;;;295.07;;
13605;SDS011;6874;52.084;5.090;2022-10-26T16:45:12;304.23;;;292.50;;